Time;durP1;ratioP1;P1;durP2;ratioP2;P2;SDS_P1;SDS_P2;PMS_P1;PMS_P2;Temp;Humidity;BMP_temperature;BMP_pressure;BME280_temperature;BME280_humidity;BME280_pressure;Samples;Min_cycle;Max_cycle;Signal;HPM_P1;HPM_P2
2021/10/20 00:00:26;;;;;;;11.25;6.00;;;9.90;99.90;;;;;;5054398;28;20232;-74
2021/10/20 00:02:54;;;;;;;11.48;6.13;;;9.80;99.90;;;;;;5070870;28;20212;-74
2021/10/20 00:05:20;;;;;;;7.80;6.00;;;9.80;99.90;;;;;;5070761;28;20184;-74
2021/10/20 00:07:47;;;;;;;9.10;6.70;;;9.90;99.90;;;;;;5067838;28;20188;-74
2021/10/20 00:10:15;;;;;;;12.57;6.72;;;9.90;99.90;;;;;;5067839;28;20164;-74
2021/10/20 00:12:42;;;;;;;10.00;6.28;;;9.80;99.90;;;;;;5068807;28;20211;-74
2021/10/20 00:15:11;;;;;;;8.30;5.35;;;9.70;99.90;;;;;;5069606;28;20157;-74
2021/10/20 00:17:37;;;;;;;8.30;5.65;;;9.60;99.90;;;;;;5049303;28;20689;-74
2021/10/20 00:20:07;;;;;;;8.90;5.93;;;9.70;99.90;;;;;;5051221;28;20164;-75
2021/10/20 00:22:34;;;;;;;12.80;6.07;;;9.60;99.90;;;;;;5070086;28;20696;-74
2021/10/20 00:25:00;;;;;;;10.55;6.10;;;9.60;99.90;;;;;;5068758;28;20165;-75
2021/10/20 00:27:27;;;;;;;9.65;6.25;;;9.60;99.90;;;;;;5069202;28;20179;-75
2021/10/20 00:29:54;;;;;;;8.75;5.85;;;9.40;99.90;;;;;;5068936;28;20172;-75
2021/10/20 00:32:20;;;;;;;10.10;6.68;;;9.30;99.90;;;;;;5069041;28;20207;-75
2021/10/20 00:34:46;;;;;;;13.02;6.55;;;9.20;99.90;;;;;;5069110;28;20232;-75
2021/10/20 00:37:11;;;;;;;10.20;6.10;;;9.30;99.90;;;;;;5069072;28;20634;-75
2021/10/20 00:39:37;;;;;;;10.82;7.15;;;9.20;99.90;;;;;;5068988;28;20194;-74
2021/10/20 00:42:05;;;;;;;9.10;6.00;;;9.20;99.90;;;;;;5068721;28;20208;-75
2021/10/20 00:44:45;;;;;;;11.57;7.63;;;9.20;99.90;;;;;;5070281;28;20168;-75
2021/10/20 00:47:11;;;;;;;10.25;7.03;;;9.20;99.90;;;;;;5068904;28;20243;-74
2021/10/20 00:49:37;;;;;;;10.52;7.20;;;9.20;99.90;;;;;;5068795;28;20165;-75
2021/10/20 00:52:03;;;;;;;10.52;6.93;;;9.10;99.90;;;;;;5070052;28;20196;-75
2021/10/20 00:54:29;;;;;;;16.50;6.45;;;9.10;99.90;;;;;;5053097;28;20236;-75
2021/10/20 00:56:55;;;;;;;9.77;6.88;;;9.10;99.90;;;;;;5051952;28;20173;-74
2021/10/20 00:59:21;;;;;;;8.13;6.35;;;9.00;99.90;;;;;;5051919;28;20184;-75
2021/10/20 01:01:47;;;;;;;12.45;7.20;;;9.00;99.90;;;;;;5051911;28;20212;-75
2021/10/20 01:04:13;;;;;;;13.88;6.85;;;8.90;99.90;;;;;;5069792;28;20157;-75
2021/10/20 01:06:39;;;;;;;9.48;6.60;;;8.90;99.90;;;;;;5051740;28;20174;-75
2021/10/20 01:09:05;;;;;;;11.50;6.60;;;8.90;99.90;;;;;;5031677;28;20180;-74
2021/10/20 01:11:31;;;;;;;11.02;7.32;;;8.80;99.90;;;;;;5031777;28;20173;-75
2021/10/20 01:13:57;;;;;;;12.27;6.85;;;8.80;99.90;;;;;;5049642;28;20166;-74
2021/10/20 01:16:23;;;;;;;9.25;6.10;;;8.80;99.90;;;;;;5031669;28;20204;-74
2021/10/20 01:18:49;;;;;;;10.35;6.50;;;8.80;99.90;;;;;;5031748;28;20644;-74
2021/10/20 01:21:20;;;;;;;9.50;6.60;;;8.80;99.90;;;;;;5031736;28;20209;-75
2021/10/20 01:23:47;;;;;;;11.43;5.93;;;8.90;99.90;;;;;;5031553;28;20169;-74
2021/10/20 01:26:14;;;;;;;9.77;6.22;;;8.90;99.90;;;;;;5049459;28;20211;-75
2021/10/20 01:28:41;;;;;;;13.52;7.30;;;8.80;99.90;;;;;;5049422;28;20161;-75
2021/10/20 01:31:07;;;;;;;9.73;5.97;;;8.90;99.90;;;;;;5031514;28;20170;-75
2021/10/20 01:33:33;;;;;;;11.10;7.13;;;8.80;99.90;;;;;;5049159;28;20195;-75
2021/10/20 01:35:58;;;;;;;9.32;6.85;;;8.90;99.90;;;;;;5048150;28;20189;-75
2021/10/20 01:38:24;;;;;;;14.27;7.40;;;8.90;99.90;;;;;;5031336;28;20192;-75
2021/10/20 01:40:50;;;;;;;10.07;7.35;;;9.00;99.90;;;;;;5049083;28;20193;-75
2021/10/20 01:43:16;;;;;;;10.13;6.88;;;9.10;99.90;;;;;;5049127;28;20185;-75
2021/10/20 01:45:42;;;;;;;9.85;6.72;;;9.10;99.90;;;;;;5049011;28;20158;-74
2021/10/20 01:48:08;;;;;;;10.73;7.13;;;9.10;99.90;;;;;;5049106;28;20184;-74
2021/10/20 01:50:34;;;;;;;11.88;7.82;;;9.10;99.90;;;;;;5049199;28;20161;-74
2021/10/20 01:53:00;;;;;;;12.20;8.18;;;9.10;99.90;;;;;;5036820;28;20227;-74
2021/10/20 01:55:26;;;;;;;13.80;8.57;;;9.10;99.90;;;;;;5067659;28;20165;-75
2021/10/20 01:57:52;;;;;;;10.25;7.93;;;9.20;99.90;;;;;;5078691;28;20196;-75
2021/10/20 02:00:18;;;;;;;14.35;8.45;;;9.20;99.90;;;;;;5089155;28;20160;-75
2021/10/20 02:02:45;;;;;;;19.20;10.05;;;9.20;99.90;;;;;;5087780;28;20203;-75
2021/10/20 02:05:13;;;;;;;13.95;10.15;;;9.30;99.90;;;;;;5087809;28;20266;-75
2021/10/20 02:07:40;;;;;;;26.75;10.75;;;9.30;99.90;;;;;;5087653;28;20245;-74
2021/10/20 02:10:08;;;;;;;17.30;10.02;;;9.20;99.90;;;;;;5087644;28;20310;-75
2021/10/20 02:12:34;;;;;;;15.20;9.93;;;9.20;99.90;;;;;;5087580;28;20679;-75
2021/10/20 02:15:00;;;;;;;17.10;10.80;;;9.30;99.90;;;;;;5087957;28;20164;-74
2021/10/20 02:17:26;;;;;;;18.75;10.63;;;9.30;99.90;;;;;;5066655;28;20192;-75
2021/10/20 02:19:52;;;;;;;15.65;9.40;;;9.30;99.90;;;;;;5067034;28;20208;-74
2021/10/20 02:22:18;;;;;;;12.98;9.15;;;9.30;99.90;;;;;;5068035;28;20212;-74
2021/10/20 02:24:44;;;;;;;15.60;9.57;;;9.30;99.90;;;;;;5067056;28;20183;-75
2021/10/20 02:27:10;;;;;;;15.35;10.30;;;9.30;99.90;;;;;;5068537;28;20550;-75
2021/10/20 02:29:36;;;;;;;14.23;9.02;;;9.30;99.90;;;;;;5068285;28;20189;-75
2021/10/20 02:32:02;;;;;;;17.70;10.27;;;9.30;99.90;;;;;;5067089;28;20311;-76
2021/10/20 02:34:29;;;;;;;13.35;8.82;;;9.20;99.90;;;;;;5068423;28;20157;-74
2021/10/20 02:36:55;;;;;;;13.60;8.88;;;9.30;99.90;;;;;;5067063;28;20200;-74
2021/10/20 02:39:21;;;;;;;14.57;8.95;;;9.30;99.90;;;;;;5068172;28;20196;-73
2021/10/20 02:41:48;;;;;;;14.77;10.27;;;9.20;99.90;;;;;;5068286;28;20195;-74
2021/10/20 02:44:14;;;;;;;12.43;8.48;;;9.20;99.90;;;;;;5066989;28;20310;-75
2021/10/20 02:46:40;;;;;;;11.82;8.93;;;9.20;99.90;;;;;;5066533;28;20168;-76
2021/10/20 02:49:06;;;;;;;16.90;9.43;;;9.10;99.90;;;;;;5066783;28;20197;-74
2021/10/20 02:51:32;;;;;;;11.55;9.13;;;9.10;99.90;;;;;;5067124;28;20240;-75
2021/10/20 02:54:00;;;;;;;11.38;8.98;;;9.10;99.90;;;;;;5055287;28;20221;-76
2021/10/20 02:56:26;;;;;;;13.10;8.93;;;9.00;99.90;;;;;;5030267;28;20195;-75
2021/10/20 02:58:53;;;;;;;9.70;7.75;;;8.90;99.90;;;;;;5029039;28;20204;-76
2021/10/20 03:01:19;;;;;;;12.93;8.82;;;8.90;99.90;;;;;;5048021;28;20247;-76
2021/10/20 03:03:45;;;;;;;14.68;8.77;;;8.80;99.90;;;;;;5030155;28;20169;-75
2021/10/20 03:06:14;;;;;;;14.15;8.38;;;8.70;99.90;;;;;;5047053;28;20200;-75
2021/10/20 03:08:39;;;;;;;16.52;9.10;;;8.60;99.90;;;;;;5028478;28;20268;-76
2021/10/20 03:11:05;;;;;;;14.75;8.52;;;8.60;99.90;;;;;;5047636;28;20157;-75
2021/10/20 03:13:31;;;;;;;16.27;9.20;;;8.50;99.90;;;;;;5028614;28;20233;-75
2021/10/20 03:15:57;;;;;;;11.90;8.95;;;8.50;99.90;;;;;;5028752;28;20181;-76
2021/10/20 03:18:23;;;;;;;15.25;7.97;;;8.40;99.90;;;;;;5047525;28;20244;-76
2021/10/20 03:20:48;;;;;;;12.98;8.45;;;8.30;99.90;;;;;;5047742;28;20236;-75
2021/10/20 03:23:14;;;;;;;13.48;8.65;;;8.20;99.90;;;;;;5030031;28;20180;-76
2021/10/20 03:25:40;;;;;;;14.98;8.80;;;8.30;99.90;;;;;;5029873;28;20166;-75
2021/10/20 03:28:06;;;;;;;13.70;8.57;;;8.30;99.90;;;;;;5029851;28;20331;-75
2021/10/20 03:30:32;;;;;;;15.02;9.95;;;8.30;99.90;;;;;;5029953;28;20172;-75
2021/10/20 03:32:58;;;;;;;11.95;8.07;;;8.30;99.90;;;;;;5029808;28;20184;-75
2021/10/20 03:35:24;;;;;;;14.77;8.27;;;8.20;99.90;;;;;;5047645;28;20182;-74
2021/10/20 03:37:49;;;;;;;16.67;9.55;;;8.10;99.90;;;;;;5047438;28;20257;-75
2021/10/20 03:40:16;;;;;;;14.00;8.93;;;8.10;99.90;;;;;;5047483;28;20165;-76
2021/10/20 03:42:43;;;;;;;16.92;9.18;;;8.10;99.90;;;;;;5047584;28;20200;-75
2021/10/20 03:45:10;;;;;;;13.38;9.00;;;8.00;99.90;;;;;;5047378;28;20158;-75
2021/10/20 03:47:36;;;;;;;18.40;9.68;;;8.00;99.90;;;;;;5047825;28;20196;-74
2021/10/20 03:50:02;;;;;;;16.75;10.55;;;8.00;99.90;;;;;;5029492;28;20162;-74
2021/10/20 03:52:28;;;;;;;20.40;9.73;;;8.00;99.90;;;;;;5029869;28;20631;-75
2021/10/20 03:54:54;;;;;;;23.13;10.82;;;8.00;99.90;;;;;;5065920;28;20267;-76
2021/10/20 03:57:20;;;;;;;26.02;13.45;;;8.00;99.90;;;;;;5067443;28;20196;-73
2021/10/20 03:59:46;;;;;;;22.30;12.88;;;8.00;99.90;;;;;;5070215;28;20218;-74
2021/10/20 04:02:13;;;;;;;19.83;12.45;;;8.00;99.90;;;;;;5069687;28;20200;-76
2021/10/20 04:04:40;;;;;;;16.13;11.15;;;8.00;99.90;;;;;;5071347;28;20221;-75
2021/10/20 04:07:06;;;;;;;20.60;10.70;;;8.10;99.90;;;;;;5071205;28;20185;-75
2021/10/20 04:09:32;;;;;;;22.80;11.40;;;8.00;99.90;;;;;;5069791;28;20251;-75
2021/10/20 04:11:58;;;;;;;22.65;12.05;;;8.00;99.90;;;;;;5070850;28;20235;-75
2021/10/20 04:14:24;;;;;;;25.55;13.25;;;8.00;99.90;;;;;;5069439;28;20224;-76
2021/10/20 04:16:50;;;;;;;18.27;12.55;;;8.00;99.90;;;;;;5070518;28;20200;-75
2021/10/20 04:19:16;;;;;;;27.98;12.75;;;8.10;99.90;;;;;;5069227;28;20170;-75
2021/10/20 04:21:41;;;;;;;26.75;13.65;;;8.10;99.90;;;;;;5070362;28;20212;-76
2021/10/20 04:24:07;;;;;;;23.50;13.27;;;8.20;99.90;;;;;;5069277;28;20172;-74
2021/10/20 04:26:33;;;;;;;21.15;13.02;;;8.20;99.90;;;;;;5070584;28;20239;-74
2021/10/20 04:28:59;;;;;;;25.17;13.77;;;8.20;99.90;;;;;;5070510;28;20579;-74
2021/10/20 04:31:25;;;;;;;22.92;13.30;;;8.20;99.90;;;;;;5070474;28;20161;-74
2021/10/20 04:33:51;;;;;;;25.95;13.35;;;8.20;99.90;;;;;;5070344;28;20173;-74
2021/10/20 04:36:17;;;;;;;17.98;11.40;;;8.30;99.90;;;;;;5070301;28;20525;-74
2021/10/20 04:38:43;;;;;;;19.63;10.93;;;8.30;99.90;;;;;;5070419;28;20175;-75
2021/10/20 04:41:09;;;;;;;23.65;11.80;;;8.30;99.90;;;;;;5068860;28;20210;-74
2021/10/20 04:43:36;;;;;;;16.88;11.30;;;8.30;99.90;;;;;;5069980;28;20188;-74
2021/10/20 04:46:02;;;;;;;18.25;11.75;;;8.30;99.90;;;;;;5069890;28;20164;-76
2021/10/20 04:48:28;;;;;;;18.85;11.20;;;8.30;99.90;;;;;;5070084;28;20229;-76
2021/10/20 04:50:54;;;;;;;17.23;11.00;;;8.30;99.90;;;;;;5070030;28;20165;-75
2021/10/20 04:53:20;;;;;;;19.85;11.38;;;8.30;99.90;;;;;;5069716;28;20220;-75
2021/10/20 04:55:45;;;;;;;17.27;10.70;;;8.30;99.90;;;;;;5069784;28;20178;-75
2021/10/20 04:58:11;;;;;;;16.38;10.27;;;8.20;99.90;;;;;;5069163;28;20283;-75
2021/10/20 05:00:37;;;;;;;17.52;11.32;;;8.10;99.90;;;;;;5068178;28;20686;-76
2021/10/20 05:03:04;;;;;;;20.23;10.73;;;8.10;99.90;;;;;;5068211;28;20168;-76
2021/10/20 05:05:30;;;;;;;20.35;11.43;;;8.10;99.90;;;;;;5068334;28;20169;-76
2021/10/20 05:07:58;;;;;;;18.38;12.38;;;8.10;99.90;;;;;;5068171;28;20208;-76
2021/10/20 05:10:26;;;;;;;26.02;12.68;;;8.00;99.90;;;;;;5069009;28;20178;-76
2021/10/20 05:12:54;;;;;;;23.17;13.90;;;8.00;99.90;;;;;;5068295;28;20172;-76
2021/10/20 05:15:21;;;;;;;26.85;13.30;;;8.00;99.90;;;;;;5068131;28;20169;-75
2021/10/20 05:17:47;;;;;;;25.45;13.85;;;7.90;99.90;;;;;;5069313;28;20267;-75
2021/10/20 05:20:15;;;;;;;34.45;13.68;;;7.90;99.90;;;;;;5069556;28;20244;-75
2021/10/20 05:22:42;;;;;;;25.48;13.82;;;7.90;99.90;;;;;;5068189;28;20215;-76
2021/10/20 05:25:11;;;;;;;25.17;12.13;;;7.90;99.90;;;;;;5069189;28;20172;-75
2021/10/20 05:27:38;;;;;;;17.05;10.90;;;7.90;99.90;;;;;;5069056;28;20196;-75
2021/10/20 05:30:05;;;;;;;21.48;10.98;;;7.80;99.90;;;;;;5069370;28;20595;-75
2021/10/20 05:32:31;;;;;;;19.98;11.85;;;7.80;99.90;;;;;;5067911;28;20177;-76
2021/10/20 05:34:58;;;;;;;18.90;12.02;;;7.90;99.90;;;;;;5068972;28;20172;-75
2021/10/20 05:37:25;;;;;;;23.58;13.77;;;7.90;99.90;;;;;;5068986;28;20276;-75
2021/10/20 05:39:52;;;;;;;31.58;15.00;;;8.00;99.90;;;;;;5069023;28;20261;-76
2021/10/20 05:42:19;;;;;;;21.80;13.18;;;8.00;99.90;;;;;;5068863;28;20256;-74
2021/10/20 05:44:45;;;;;;;22.35;13.30;;;8.00;99.90;;;;;;5067726;28;20173;-74
2021/10/20 05:47:12;;;;;;;21.25;13.63;;;8.10;99.90;;;;;;5068836;28;20211;-75
2021/10/20 05:49:38;;;;;;;25.00;14.05;;;8.10;99.90;;;;;;5067577;28;20211;-75
2021/10/20 05:52:06;;;;;;;26.98;14.30;;;8.10;99.90;;;;;;5067371;28;20169;-75
2021/10/20 05:54:32;;;;;;;23.30;14.32;;;8.10;99.90;;;;;;5067136;28;20235;-74
2021/10/20 05:56:58;;;;;;;23.90;13.95;;;8.20;99.90;;;;;;5066978;28;20264;-74
2021/10/20 05:59:24;;;;;;;24.15;14.32;;;8.20;99.90;;;;;;5068523;28;20165;-75
2021/10/20 06:01:51;;;;;;;24.67;13.40;;;8.20;99.90;;;;;;5067060;28;20235;-75
2021/10/20 06:04:17;;;;;;;21.70;13.93;;;8.10;99.90;;;;;;5067169;28;20502;-75
2021/10/20 06:06:46;;;;;;;18.67;13.32;;;8.20;99.90;;;;;;5067026;28;20214;-75
2021/10/20 06:09:13;;;;;;;25.75;14.35;;;8.20;99.90;;;;;;5067145;28;20175;-76
2021/10/20 06:11:39;;;;;;;29.50;14.70;;;8.20;99.90;;;;;;5068351;28;20176;-75
2021/10/20 06:14:05;;;;;;;25.17;14.43;;;8.20;99.90;;;;;;5068460;28;20184;-75
2021/10/20 06:16:35;;;;;;;23.23;13.13;;;8.20;99.90;;;;;;5068092;28;20200;-75
2021/10/20 06:19:02;;;;;;;21.15;13.73;;;8.20;99.90;;;;;;5068470;28;20232;-75
2021/10/20 06:21:27;;;;;;;22.77;15.35;;;8.20;99.90;;;;;;5067348;28;20199;-75
2021/10/20 06:23:53;;;;;;;25.63;15.80;;;8.40;99.90;;;;;;5068213;28;20212;-74
2021/10/20 06:26:19;;;;;;;21.52;14.20;;;8.40;99.90;;;;;;5068105;28;20157;-75
2021/10/20 06:28:45;;;;;;;20.42;14.10;;;8.40;99.90;;;;;;5067837;28;20164;-75
2021/10/20 06:31:11;;;;;;;22.45;14.25;;;8.60;99.90;;;;;;5066670;28;20173;-75
2021/10/20 06:33:37;;;;;;;21.17;14.63;;;8.70;99.90;;;;;;5066713;28;20195;-74
2021/10/20 06:36:04;;;;;;;22.92;13.68;;;8.60;99.90;;;;;;5066647;28;20168;-74
2021/10/20 06:38:30;;;;;;;27.05;15.00;;;8.70;99.90;;;;;;5067655;28;20165;-74
2021/10/20 06:40:56;;;;;;;25.52;14.65;;;8.70;99.90;;;;;;5067751;28;20192;-75
2021/10/20 06:43:22;;;;;;;27.50;14.90;;;8.80;99.90;;;;;;5066130;28;20173;-75
2021/10/20 06:45:49;;;;;;;33.20;14.32;;;8.80;99.90;;;;;;5066306;28;20199;-75
2021/10/20 06:48:15;;;;;;;23.83;14.98;;;8.70;99.90;;;;;;5065973;28;20228;-75
2021/10/20 06:50:42;;;;;;;26.02;16.42;;;8.50;99.90;;;;;;5067485;28;20176;-75
2021/10/20 06:53:07;;;;;;;28.50;15.25;;;8.60;99.90;;;;;;5061699;28;20217;-76
2021/10/20 06:55:33;;;;;;;26.30;14.60;;;8.70;99.90;;;;;;5047626;28;20280;-77
2021/10/20 06:58:02;;;;;;;27.45;16.33;;;8.80;99.90;;;;;;5047826;28;20212;-76
2021/10/20 07:00:27;;;;;;;27.17;15.95;;;8.60;99.90;;;;;;5029899;28;20199;-75
2021/10/20 07:02:53;;;;;;;31.08;15.43;;;8.60;99.90;;;;;;5029782;28;20228;-75
2021/10/20 07:05:19;;;;;;;26.15;14.38;;;8.60;99.90;;;;;;5029955;28;20189;-74
2021/10/20 07:07:45;;;;;;;23.65;14.70;;;8.60;99.90;;;;;;5046738;28;20193;-74
2021/10/20 07:10:11;;;;;;;20.98;13.95;;;8.60;99.90;;;;;;5026947;28;20184;-74
2021/10/20 07:12:38;;;;;;;28.75;13.70;;;8.80;99.90;;;;;;5045265;28;20197;-74
2021/10/20 07:15:05;;;;;;;24.25;15.55;;;8.70;99.90;;;;;;5045646;28;20264;-75
2021/10/20 07:17:31;;;;;;;29.98;15.00;;;8.70;99.90;;;;;;5045483;28;20263;-74
2021/10/20 07:19:57;;;;;;;27.90;16.63;;;9.00;99.90;;;;;;5045347;28;20145;-73
2021/10/20 07:22:23;;;;;;;29.20;16.98;;;9.10;99.90;;;;;;5027299;28;20213;-74
2021/10/20 07:24:49;;;;;;;25.08;15.60;;;9.20;99.90;;;;;;5047155;28;20158;-74
2021/10/20 07:27:15;;;;;;;29.25;15.75;;;9.20;99.90;;;;;;5047467;28;20158;-75
2021/10/20 07:29:44;;;;;;;26.30;14.93;;;9.20;99.90;;;;;;5047727;28;20167;-75
2021/10/20 07:32:10;;;;;;;31.35;15.18;;;9.20;99.90;;;;;;5029935;28;20205;-75
2021/10/20 07:34:36;;;;;;;33.20;16.23;;;9.10;99.90;;;;;;5051519;28;20219;-75
2021/10/20 07:37:02;;;;;;;26.88;16.58;;;9.10;99.90;;;;;;5051387;28;20176;-75
2021/10/20 07:39:28;;;;;;;24.98;15.52;;;9.30;99.90;;;;;;5033795;28;20196;-74
2021/10/20 07:41:54;;;;;;;32.90;14.77;;;9.30;99.90;;;;;;5033281;28;20209;-75
2021/10/20 07:44:20;;;;;;;29.75;16.65;;;9.50;99.90;;;;;;5033316;28;20257;-75
2021/10/20 07:46:46;;;;;;;34.10;16.98;;;9.60;99.90;;;;;;5051352;28;20158;-75
2021/10/20 07:49:13;;;;;;;25.83;14.88;;;9.70;99.90;;;;;;5033357;28;20177;-76
2021/10/20 07:51:39;;;;;;;24.48;14.82;;;9.70;99.90;;;;;;5051362;28;20157;-75
2021/10/20 07:54:04;;;;;;;27.65;15.07;;;9.70;99.90;;;;;;5056201;28;20227;-75
2021/10/20 07:56:36;;;;;;;23.02;13.93;;;9.60;99.90;;;;;;5069665;28;20260;-75
2021/10/20 07:59:03;;;;;;;31.02;15.32;;;9.50;99.90;;;;;;5071129;28;20161;-75
2021/10/20 08:01:29;;;;;;;29.75;16.38;;;9.70;99.90;;;;;;5070867;28;20192;-73
2021/10/20 08:03:54;;;;;;;25.20;15.07;;;9.70;99.90;;;;;;5069609;28;20168;-74
2021/10/20 08:06:20;;;;;;;28.90;16.05;;;9.80;99.90;;;;;;5071108;28;20179;-74
2021/10/20 08:08:46;;;;;;;25.05;14.40;;;9.90;99.90;;;;;;5069394;28;20173;-74
2021/10/20 08:11:12;;;;;;;28.80;16.25;;;10.20;99.90;;;;;;5070828;28;20161;-74
2021/10/20 08:13:38;;;;;;;22.67;15.15;;;11.00;99.90;;;;;;5069210;28;20259;-74
2021/10/20 08:16:04;;;;;;;19.38;13.40;;;11.30;99.90;;;;;;5069261;28;20177;-73
2021/10/20 08:18:30;;;;;;;18.63;13.07;;;11.10;99.90;;;;;;5070730;28;20172;-74
2021/10/20 08:20:56;;;;;;;21.05;12.55;;;11.10;99.90;;;;;;5069042;28;20414;-74
2021/10/20 08:23:22;;;;;;;18.10;12.80;;;11.60;99.90;;;;;;5069261;28;20262;-74
2021/10/20 08:25:48;;;;;;;16.00;10.73;;;12.30;99.90;;;;;;5070668;28;20157;-75
2021/10/20 08:28:14;;;;;;;17.90;10.85;;;13.20;99.90;;;;;;5070557;28;20160;-75
2021/10/20 08:30:40;;;;;;;17.75;11.15;;;14.40;99.90;;;;;;5069203;28;20268;-75
2021/10/20 08:33:06;;;;;;;11.88;9.55;;;15.30;99.90;;;;;;5069267;28;20196;-74
2021/10/20 08:35:32;;;;;;;15.63;9.20;;;15.90;99.90;;;;;;5070511;28;20204;-74
2021/10/20 08:38:03;;;;;;;13.23;9.93;;;16.70;99.90;;;;;;5070626;28;20154;-75
2021/10/20 08:40:34;;;;;;;13.48;9.40;;;17.40;99.90;;;;;;5070503;28;20149;-75
2021/10/20 08:43:00;;;;;;;13.75;9.57;;;17.60;99.90;;;;;;5069685;28;20203;-76
2021/10/20 08:45:27;;;;;;;18.65;9.73;;;18.50;99.90;;;;;;5067631;28;20211;-76
2021/10/20 08:47:54;;;;;;;10.70;8.00;;;19.30;99.90;;;;;;5068680;28;20171;-76
2021/10/20 08:50:26;;;;;;;10.60;8.73;;;19.70;99.90;;;;;;5068754;28;20172;-76
2021/10/20 08:52:53;;;;;;;15.95;8.77;;;20.20;99.90;;;;;;5065249;28;20323;-76
2021/10/20 08:55:21;;;;;;;12.10;8.75;;;20.70;99.90;;;;;;5038418;28;20197;-76
2021/10/20 08:57:49;;;;;;;11.52;7.93;;;19.50;99.90;;;;;;5029994;28;20288;-76
2021/10/20 09:00:16;;;;;;;15.27;8.30;;;18.70;99.90;;;;;;5029893;28;20192;-76
2021/10/20 09:02:45;;;;;;;10.13;7.90;;;18.00;99.90;;;;;;5012119;28;20232;-75
2021/10/20 09:05:15;;;;;;;13.13;8.43;;;17.90;99.90;;;;;;5012326;28;20204;-75
2021/10/20 09:07:43;;;;;;;16.63;8.15;;;19.00;99.90;;;;;;5030031;28;20181;-75
2021/10/20 09:10:10;;;;;;;13.00;7.97;;;18.90;99.90;;;;;;5012224;28;20166;-74
2021/10/20 09:12:40;;;;;;;11.57;8.52;;;18.30;99.90;;;;;;5029633;28;20209;-75
2021/10/20 09:15:13;;;;;;;11.05;7.80;;;18.50;99.90;;;;;;5029830;28;20197;-74
2021/10/20 09:17:48;;;;;;;13.10;7.95;;;19.00;99.90;;;;;;5029609;28;20195;-74
2021/10/20 09:20:19;;;;;;;14.80;7.90;;;18.70;99.90;;;;;;5012107;28;20267;-73
2021/10/20 09:23:03;;;;;;;17.15;8.02;;;18.70;99.90;;;;;;5029578;28;20189;-74
2021/10/20 09:25:45;;;;;;;15.77;7.55;;;18.80;99.90;;;;;;5011670;28;20201;-74
2021/10/20 09:28:20;;;;;;;25.40;8.25;;;19.70;99.90;;;;;;5030707;28;20304;-74
2021/10/20 09:30:46;;;;;;;10.55;6.47;;;19.00;99.90;;;;;;5048987;28;20161;-74
2021/10/20 09:33:12;;;;;;;10.35;7.13;;;18.90;99.90;;;;;;5026702;28;20237;-75
2021/10/20 09:35:39;;;;;;;11.43;6.32;;;18.80;99.90;;;;;;5037564;28;20251;-73
2021/10/20 09:38:06;;;;;;;10.35;6.93;;;18.90;99.90;;;;;;5048446;28;20230;-74
2021/10/20 09:40:41;;;;;;;7.97;6.90;;;19.20;99.90;;;;;;5030800;28;20165;-74
2021/10/20 09:43:08;;;;;;;7.47;6.70;;;18.80;99.90;;;;;;5048670;28;20156;-74
2021/10/20 09:45:40;;;;;;;7.15;6.10;;;19.20;99.90;;;;;;5048724;28;20661;-77
2021/10/20 09:48:11;;;;;;;7.72;4.68;;;20.80;99.90;;;;;;5048921;28;20590;-76
2021/10/20 09:51:06;;;;;;;7.38;5.20;;;20.50;99.90;;;;;;5048566;28;20149;-75
2021/10/20 09:53:35;;;;;;;7.53;4.85;;;19.70;99.90;;;;;;5044729;28;20222;-74
2021/10/20 09:56:22;;;;;;;9.88;4.93;;;20.10;99.90;;;;;;5067804;28;20305;-74
2021/10/20 09:58:49;;;;;;;8.48;4.60;;;20.10;99.90;;;;;;5068223;28;20156;-74
2021/10/20 10:01:27;;;;;;;9.43;5.47;;;21.20;99.90;;;;;;5068131;28;20192;-75
2021/10/20 10:04:02;;;;;;;9.60;4.82;;;20.70;99.90;;;;;;5053088;28;20179;-74
2021/10/20 10:06:29;;;;;;;7.07;5.13;;;20.10;99.90;;;;;;5048378;28;20195;-74
2021/10/20 10:08:55;;;;;;;6.15;4.85;;;20.10;99.90;;;;;;5046831;28;20188;-73
2021/10/20 10:11:22;;;;;;;7.13;4.60;;;20.40;99.90;;;;;;5046651;28;20330;-75
2021/10/20 10:13:54;;;;;;;7.65;5.10;;;20.90;99.90;;;;;;5047728;28;20262;-74
2021/10/20 10:16:27;;;;;;;8.82;4.70;;;21.30;99.90;;;;;;5047804;28;20214;-74
2021/10/20 10:18:58;;;;;;;7.88;4.97;;;22.20;99.90;;;;;;5047891;28;20153;-73
2021/10/20 10:21:29;;;;;;;6.25;4.70;;;22.40;99.90;;;;;;5046509;28;20227;-74
2021/10/20 10:23:57;;;;;;;8.60;4.32;;;21.10;99.90;;;;;;5047870;28;20203;-79
2021/10/20 10:26:24;;;;;;;6.95;4.35;;;22.10;99.90;;;;;;5046422;28;20188;-73
2021/10/20 10:29:10;;;;;;;6.20;4.15;;;21.60;99.90;;;;;;5046389;28;20176;-72
2021/10/20 10:31:41;;;;;;;7.57;4.13;;;22.30;99.90;;;;;;5055559;28;20168;-70
2021/10/20 10:34:24;;;;;;;6.43;3.85;;;21.10;99.90;;;;;;5067759;28;20161;-75
2021/10/20 10:36:52;;;;;;;8.68;4.05;;;21.00;99.90;;;;;;5066081;28;20234;-73
2021/10/20 10:39:18;;;;;;;8.93;4.43;;;21.10;99.90;;;;;;5067381;28;20600;-74
2021/10/20 10:41:52;;;;;;;5.47;3.83;;;21.80;99.90;;;;;;5067340;28;20187;-74
2021/10/20 10:44:23;;;;;;;5.65;4.00;;;21.90;99.90;;;;;;5066269;28;20165;-74
2021/10/20 10:47:12;;;;;;;4.68;3.55;;;21.00;99.90;;;;;;5065956;28;20203;-74
2021/10/20 10:49:43;;;;;;;6.13;3.90;;;21.00;99.90;;;;;;5066142;28;20160;-74
2021/10/20 10:52:27;;;;;;;5.20;3.55;;;21.50;99.90;;;;;;5067595;28;20161;-75
2021/10/20 10:54:58;;;;;;;7.00;3.78;;;20.60;99.90;;;;;;5065577;28;20692;-75
2021/10/20 10:57:40;;;;;;;5.95;4.32;;;21.20;99.90;;;;;;5065812;28;20194;-75
2021/10/20 11:00:18;;;;;;;6.13;3.85;;;21.20;99.90;;;;;;5067462;28;20603;-76
2021/10/20 11:02:47;;;;;;;4.95;3.63;;;20.50;99.90;;;;;;5067243;28;20207;-76
2021/10/20 11:05:14;;;;;;;7.72;3.70;;;21.00;99.90;;;;;;5064524;28;20199;-76
2021/10/20 11:07:45;;;;;;;6.68;3.33;;;21.50;99.90;;;;;;5069961;28;20163;-76
2021/10/20 11:10:13;;;;;;;5.32;4.15;;;21.40;99.90;;;;;;5074071;28;20167;-76
2021/10/20 11:12:39;;;;;;;5.72;3.42;;;20.70;99.90;;;;;;5072942;28;20243;-76
2021/10/20 11:15:11;;;;;;;8.68;4.03;;;20.00;99.90;;;;;;5073883;28;20215;-76
2021/10/20 11:17:37;;;;;;;5.82;3.95;;;20.40;99.90;;;;;;5072612;28;20203;-75
2021/10/20 11:20:12;;;;;;;5.00;3.85;;;20.30;99.90;;;;;;5074040;28;20175;-75
2021/10/20 11:22:39;;;;;;;4.15;3.28;;;20.50;99.90;;;;;;5071861;28;20257;-75
2021/10/20 11:25:11;;;;;;;5.05;3.75;;;21.30;99.90;;;;;;5073804;28;20247;-75
2021/10/20 11:27:38;;;;;;;6.80;4.32;;;21.40;99.90;;;;;;5073868;28;20213;-75
2021/10/20 11:30:06;;;;;;;7.40;3.92;;;21.00;99.90;;;;;;5073703;28;20152;-75
2021/10/20 11:32:35;;;;;;;5.25;3.40;;;20.90;99.90;;;;;;5072464;28;20182;-75
2021/10/20 11:35:02;;;;;;;3.72;3.33;;;22.20;99.90;;;;;;5073427;28;20629;-75
2021/10/20 11:37:27;;;;;;;5.20;4.13;;;21.50;99.90;;;;;;5072288;28;20235;-75
2021/10/20 11:39:56;;;;;;;10.80;3.72;;;21.90;99.90;;;;;;5073593;28;20160;-75
2021/10/20 11:42:23;;;;;;;7.43;3.42;;;21.40;99.90;;;;;;5072255;28;20204;-75
2021/10/20 11:44:51;;;;;;;7.65;3.70;;;21.90;99.90;;;;;;5073726;28;20480;-75
2021/10/20 11:47:20;;;;;;;3.85;3.35;;;21.80;99.90;;;;;;5072235;28;20168;-76
2021/10/20 11:49:49;;;;;;;5.63;3.30;;;21.20;99.90;;;;;;5073513;28;20152;-75
2021/10/20 11:52:18;;;;;;;3.83;3.42;;;21.20;99.90;;;;;;5072162;28;20172;-73
2021/10/20 11:54:44;;;;;;;5.82;3.22;;;22.20;99.90;;;;;;5071556;28;20330;-73
2021/10/20 11:57:14;;;;;;;5.40;2.78;;;23.50;99.90;;;;;;5071991;28;20180;-72
2021/10/20 11:59:40;;;;;;;8.50;3.53;;;21.90;99.90;;;;;;5073309;28;20189;-70
2021/10/20 12:02:08;;;;;;;3.90;2.80;;;21.60;99.90;;;;;;5073606;28;20204;-70
2021/10/20 12:04:34;;;;;;;3.17;2.50;;;22.70;99.90;;;;;;5077999;28;20236;-69
2021/10/20 12:07:03;;;;;;;3.88;2.80;;;23.20;99.90;;;;;;5072148;28;20203;-72
2021/10/20 12:09:32;;;;;;;3.47;3.03;;;23.20;99.90;;;;;;5071275;28;20200;-72
2021/10/20 12:12:00;;;;;;;6.50;2.90;;;22.70;99.90;;;;;;5071371;28;20155;-72
2021/10/20 12:14:35;;;;;;;4.63;3.28;;;22.20;99.90;;;;;;5069779;28;20199;-72
2021/10/20 12:17:03;;;;;;;5.22;4.15;;;21.20;99.90;;;;;;5072046;28;20163;-72
2021/10/20 12:19:31;;;;;;;5.57;4.25;;;19.80;99.90;;;;;;5069396;28;20160;-71
2021/10/20 12:22:03;;;;;;;4.13;3.20;;;19.20;99.90;;;;;;5067543;28;20216;-72
2021/10/20 12:24:35;;;;;;;8.63;3.80;;;19.00;99.90;;;;;;5067844;28;20266;-72
2021/10/20 12:27:03;;;;;;;6.57;4.00;;;19.10;99.90;;;;;;5069764;28;20239;-73
2021/10/20 12:29:55;;;;;;;8.55;4.00;;;18.90;99.90;;;;;;5067806;28;20191;-73
2021/10/20 12:32:27;;;;;;;6.43;3.92;;;18.90;99.90;;;;;;5069385;28;20196;-72
2021/10/20 12:35:00;;;;;;;4.38;3.85;;;18.70;99.90;;;;;;5068490;28;20201;-72
2021/10/20 12:37:39;;;;;;;5.60;3.72;;;18.90;99.90;;;;;;5069653;28;20184;-72
2021/10/20 12:40:27;;;;;;;5.22;3.72;;;18.90;99.90;;;;;;5069492;28;20160;-73
2021/10/20 12:43:08;;;;;;;4.68;3.63;;;18.80;99.90;;;;;;5069316;28;20185;-72
2021/10/20 12:45:36;;;;;;;4.78;3.40;;;18.80;99.90;;;;;;5069270;28;20153;-72